sensor_id;sensor_type;location;lat;lon;timestamp;P1;durP1;ratioP1;P2;durP2;ratioP2
84523;SDS011;74765;44.538;18.668;2024-01-15T06:28:45;76.30;;;33.67;;
84523;SDS011;74765;44.538;18.668;2024-01-15T06:31:11;109.20;;;40.83;;
84523;SDS011;74765;44.538;18.668;2024-01-15T06:33:37;107.90;;;46.58;;
84523;SDS011;74765;44.538;18.668;2024-01-15T06:36:03;104.20;;;41.78;;
84523;SDS011;74765;44.538;18.668;2024-01-15T06:38:29;116.43;;;43.08;;
84523;SDS011;74765;44.538;18.668;2024-01-15T06:40:55;103.00;;;43.03;;
84523;SDS011;74765;44.538;18.668;2024-01-15T06:43:21;103.68;;;41.35;;
84523;SDS011;74765;44.538;18.668;2024-01-15T06:45:46;81.20;;;33.30;;
84523;SDS011;74765;44.538;18.668;2024-01-15T06:48:12;100.30;;;45.55;;
84523;SDS011;74765;44.538;18.668;2024-01-15T06:50:40;144.10;;;55.42;;
84523;SDS011;74765;44.538;18.668;2024-01-15T06:53:06;126.18;;;54.95;;
84523;SDS011;74765;44.538;18.668;2024-01-15T06:55:31;130.00;;;56.13;;
84523;SDS011;74765;44.538;18.668;2024-01-15T06:57:57;143.13;;;56.00;;
84523;SDS011;74765;44.538;18.668;2024-01-15T07:00:23;127.78;;;55.60;;
84523;SDS011;74765;44.538;18.668;2024-01-15T07:02:49;134.50;;;57.85;;
84523;SDS011;74765;44.538;18.668;2024-01-15T07:05:14;116.15;;;47.67;;
84523;SDS011;74765;44.538;18.668;2024-01-15T07:07:40;127.30;;;56.63;;
84523;SDS011;74765;44.538;18.668;2024-01-15T07:10:06;160.32;;;65.47;;
84523;SDS011;74765;44.538;18.668;2024-01-15T07:12:32;140.02;;;59.38;;
84523;SDS011;74765;44.538;18.668;2024-01-15T07:14:59;159.93;;;63.15;;
84523;SDS011;74765;44.538;18.668;2024-01-15T07:17:24;134.73;;;53.13;;
84523;SDS011;74765;44.538;18.668;2024-01-15T07:19:50;124.65;;;52.88;;
84523;SDS011;74765;44.538;18.668;2024-01-15T07:22:16;149.32;;;59.30;;
84523;SDS011;74765;44.538;18.668;2024-01-15T07:24:42;119.18;;;51.15;;
84523;SDS011;74765;44.538;18.668;2024-01-15T07:27:11;115.68;;;50.08;;
84523;SDS011;74765;44.538;18.668;2024-01-15T07:29:37;97.30;;;41.88;;
84523;SDS011;74765;44.538;18.668;2024-01-15T07:32:03;110.82;;;48.28;;
84523;SDS011;74765;44.538;18.668;2024-01-15T07:34:29;144.52;;;60.40;;
84523;SDS011;74765;44.538;18.668;2024-01-15T07:36:55;190.00;;;78.22;;
84523;SDS011;74765;44.538;18.668;2024-01-15T07:39:21;247.35;;;93.40;;
84523;SDS011;74765;44.538;18.668;2024-01-15T07:41:48;289.02;;;102.28;;
84523;SDS011;74765;44.538;18.668;2024-01-15T07:44:14;245.23;;;91.85;;
84523;SDS011;74765;44.538;18.668;2024-01-15T07:46:43;203.30;;;81.85;;
84523;SDS011;74765;44.538;18.668;2024-01-15T07:49:10;178.75;;;71.03;;
84523;SDS011;74765;44.538;18.668;2024-01-15T07:51:36;138.05;;;58.17;;
84523;SDS011;74765;44.538;18.668;2024-01-15T07:54:02;134.13;;;58.20;;
84523;SDS011;74765;44.538;18.668;2024-01-15T07:56:27;145.60;;;64.75;;
84523;SDS011;74765;44.538;18.668;2024-01-15T07:58:53;154.02;;;65.32;;
84523;SDS011;74765;44.538;18.668;2024-01-15T08:01:20;97.90;;;47.08;;
84523;SDS011;74765;44.538;18.668;2024-01-15T08:03:46;113.63;;;52.15;;
84523;SDS011;74765;44.538;18.668;2024-01-15T08:06:11;151.75;;;69.75;;
84523;SDS011;74765;44.538;18.668;2024-01-15T08:08:37;185.05;;;80.10;;
84523;SDS011;74765;44.538;18.668;2024-01-15T08:11:03;216.73;;;87.60;;
84523;SDS011;74765;44.538;18.668;2024-01-15T08:13:29;201.45;;;90.57;;
84523;SDS011;74765;44.538;18.668;2024-01-15T08:15:56;215.68;;;94.50;;
84523;SDS011;74765;44.538;18.668;2024-01-15T08:18:21;194.45;;;81.07;;
84523;SDS011;74765;44.538;18.668;2024-01-15T08:20:47;172.73;;;76.72;;
84523;SDS011;74765;44.538;18.668;2024-01-15T08:23:13;160.68;;;67.20;;
84523;SDS011;74765;44.538;18.668;2024-01-15T08:25:39;170.13;;;75.60;;
84523;SDS011;74765;44.538;18.668;2024-01-15T08:28:05;168.77;;;69.07;;
84523;SDS011;74765;44.538;18.668;2024-01-15T08:30:31;142.38;;;61.75;;
84523;SDS011;74765;44.538;18.668;2024-01-15T08:32:56;142.07;;;62.72;;
84523;SDS011;74765;44.538;18.668;2024-01-15T08:35:22;176.90;;;79.57;;
84523;SDS011;74765;44.538;18.668;2024-01-15T08:37:49;253.75;;;109.03;;
84523;SDS011;74765;44.538;18.668;2024-01-15T08:40:15;234.70;;;105.47;;
84523;SDS011;74765;44.538;18.668;2024-01-15T08:42:41;227.38;;;98.13;;
84523;SDS011;74765;44.538;18.668;2024-01-15T08:45:08;217.80;;;99.40;;
84523;SDS011;74765;44.538;18.668;2024-01-15T08:47:34;199.52;;;89.47;;
84523;SDS011;74765;44.538;18.668;2024-01-15T08:50:00;228.52;;;100.50;;
84523;SDS011;74765;44.538;18.668;2024-01-15T08:52:26;209.82;;;90.80;;
84523;SDS011;74765;44.538;18.668;2024-01-15T08:54:52;209.75;;;94.15;;
84523;SDS011;74765;44.538;18.668;2024-01-15T08:57:18;182.38;;;83.85;;
84523;SDS011;74765;44.538;18.668;2024-01-15T08:59:44;222.48;;;97.97;;
84523;SDS011;74765;44.538;18.668;2024-01-15T09:02:10;193.20;;;86.78;;
84523;SDS011;74765;44.538;18.668;2024-01-15T09:04:36;216.00;;;94.57;;
84523;SDS011;74765;44.538;18.668;2024-01-15T09:07:02;211.75;;;98.53;;
84523;SDS011;74765;44.538;18.668;2024-01-15T09:09:28;226.45;;;102.93;;
84523;SDS011;74765;44.538;18.668;2024-01-15T09:11:54;238.23;;;106.85;;
84523;SDS011;74765;44.538;18.668;2024-01-15T09:14:19;247.98;;;110.00;;
84523;SDS011;74765;44.538;18.668;2024-01-15T09:16:47;256.63;;;115.35;;
84523;SDS011;74765;44.538;18.668;2024-01-15T09:19:13;266.42;;;119.95;;
84523;SDS011;74765;44.538;18.668;2024-01-15T09:21:39;260.33;;;122.32;;
84523;SDS011;74765;44.538;18.668;2024-01-15T09:24:05;233.63;;;113.85;;
84523;SDS011;74765;44.538;18.668;2024-01-15T09:26:31;202.07;;;96.05;;
84523;SDS011;74765;44.538;18.668;2024-01-15T09:28:57;245.40;;;114.70;;
84523;SDS011;74765;44.538;18.668;2024-01-15T09:31:23;236.57;;;104.88;;
84523;SDS011;74765;44.538;18.668;2024-01-15T09:33:49;272.05;;;124.32;;
84523;SDS011;74765;44.538;18.668;2024-01-15T09:36:17;263.33;;;123.22;;
84523;SDS011;74765;44.538;18.668;2024-01-15T09:38:43;253.75;;;115.57;;
84523;SDS011;74765;44.538;18.668;2024-01-15T09:41:09;241.45;;;117.75;;
84523;SDS011;74765;44.538;18.668;2024-01-15T09:43:36;225.50;;;108.60;;
84523;SDS011;74765;44.538;18.668;2024-01-15T09:46:03;244.90;;;121.93;;
84523;SDS011;74765;44.538;18.668;2024-01-15T09:48:29;270.10;;;126.82;;
84523;SDS011;74765;44.538;18.668;2024-01-15T09:50:55;254.90;;;119.47;;
84523;SDS011;74765;44.538;18.668;2024-01-15T09:53:24;276.60;;;127.78;;
84523;SDS011;74765;44.538;18.668;2024-01-15T09:55:51;286.67;;;135.45;;
84523;SDS011;74765;44.538;18.668;2024-01-15T09:58:18;263.90;;;121.72;;
84523;SDS011;74765;44.538;18.668;2024-01-15T10:00:44;270.30;;;124.13;;
84523;SDS011;74765;44.538;18.668;2024-01-15T10:03:10;225.38;;;112.10;;
84523;SDS011;74765;44.538;18.668;2024-01-15T10:05:37;223.95;;;109.55;;
84523;SDS011;74765;44.538;18.668;2024-01-15T10:08:03;221.10;;;110.63;;
84523;SDS011;74765;44.538;18.668;2024-01-15T10:10:30;197.98;;;102.07;;
84523;SDS011;74765;44.538;18.668;2024-01-15T10:12:57;216.43;;;110.18;;
84523;SDS011;74765;44.538;18.668;2024-01-15T10:15:25;219.60;;;103.80;;
84523;SDS011;74765;44.538;18.668;2024-01-15T10:17:51;224.15;;;105.55;;
84523;SDS011;74765;44.538;18.668;2024-01-15T10:20:17;306.27;;;141.63;;
84523;SDS011;74765;44.538;18.668;2024-01-15T10:22:44;306.75;;;146.80;;
84523;SDS011;74765;44.538;18.668;2024-01-15T10:25:14;358.77;;;168.48;;
84523;SDS011;74765;44.538;18.668;2024-01-15T10:27:40;392.25;;;189.73;;
84523;SDS011;74765;44.538;18.668;2024-01-15T10:30:07;391.15;;;189.10;;
84523;SDS011;74765;44.538;18.668;2024-01-15T10:32:37;391.17;;;190.38;;
84523;SDS011;74765;44.538;18.668;2024-01-15T10:35:03;379.60;;;184.98;;
84523;SDS011;74765;44.538;18.668;2024-01-15T10:37:32;407.50;;;196.13;;
84523;SDS011;74765;44.538;18.668;2024-01-15T10:40:01;338.08;;;163.23;;
84523;SDS011;74765;44.538;18.668;2024-01-15T10:42:30;331.08;;;155.88;;
84523;SDS011;74765;44.538;18.668;2024-01-15T10:44:56;318.00;;;149.50;;
84523;SDS011;74765;44.538;18.668;2024-01-15T10:47:22;298.92;;;144.50;;
84523;SDS011;74765;44.538;18.668;2024-01-15T10:49:48;281.85;;;135.15;;
84523;SDS011;74765;44.538;18.668;2024-01-15T10:52:15;294.50;;;139.20;;
84523;SDS011;74765;44.538;18.668;2024-01-15T10:54:40;304.55;;;145.07;;
84523;SDS011;74765;44.538;18.668;2024-01-15T10:57:08;325.20;;;152.00;;
84523;SDS011;74765;44.538;18.668;2024-01-15T10:59:34;309.85;;;152.15;;
84523;SDS011;74765;44.538;18.668;2024-01-15T11:02:01;306.60;;;152.07;;
84523;SDS011;74765;44.538;18.668;2024-01-15T11:04:27;363.17;;;187.27;;
84523;SDS011;74765;44.538;18.668;2024-01-15T11:06:57;324.20;;;161.13;;
84523;SDS011;74765;44.538;18.668;2024-01-15T11:09:23;352.08;;;181.20;;
84523;SDS011;74765;44.538;18.668;2024-01-15T11:11:53;295.08;;;145.68;;
84523;SDS011;74765;44.538;18.668;2024-01-15T11:14:33;305.27;;;150.27;;
84523;SDS011;74765;44.538;18.668;2024-01-15T11:17:00;350.95;;;176.43;;
84523;SDS011;74765;44.538;18.668;2024-01-15T11:19:34;361.08;;;181.70;;
84523;SDS011;74765;44.538;18.668;2024-01-15T11:22:02;360.35;;;181.38;;
84523;SDS011;74765;44.538;18.668;2024-01-15T11:27:04;342.75;;;168.35;;
84523;SDS011;74765;44.538;18.668;2024-01-15T11:29:31;286.75;;;142.82;;
84523;SDS011;74765;44.538;18.668;2024-01-15T11:32:08;282.83;;;135.10;;
84523;SDS011;74765;44.538;18.668;2024-01-15T11:34:51;229.70;;;113.43;;
84523;SDS011;74765;44.538;18.668;2024-01-15T11:39:43;278.40;;;135.02;;
84523;SDS011;74765;44.538;18.668;2024-01-15T11:42:10;338.67;;;163.68;;
84523;SDS011;74765;44.538;18.668;2024-01-15T11:44:37;292.02;;;143.13;;
84523;SDS011;74765;44.538;18.668;2024-01-15T11:47:04;337.92;;;166.93;;
84523;SDS011;74765;44.538;18.668;2024-01-15T11:52:33;337.77;;;170.73;;
84523;SDS011;74765;44.538;18.668;2024-01-15T11:57:52;267.35;;;127.78;;
84523;SDS011;74765;44.538;18.668;2024-01-15T12:00:21;273.05;;;130.00;;
84523;SDS011;74765;44.538;18.668;2024-01-15T12:02:49;200.55;;;98.20;;
84523;SDS011;74765;44.538;18.668;2024-01-15T12:05:17;222.02;;;105.32;;
84523;SDS011;74765;44.538;18.668;2024-01-15T12:07:47;261.67;;;131.50;;
84523;SDS011;74765;44.538;18.668;2024-01-15T12:10:15;276.50;;;140.63;;
84523;SDS011;74765;44.538;18.668;2024-01-15T12:12:58;304.80;;;152.00;;
84523;SDS011;74765;44.538;18.668;2024-01-15T12:15:24;287.63;;;147.63;;
84523;SDS011;74765;44.538;18.668;2024-01-15T12:17:51;291.30;;;148.50;;
84523;SDS011;74765;44.538;18.668;2024-01-15T12:20:17;290.23;;;153.75;;
84523;SDS011;74765;44.538;18.668;2024-01-15T12:22:43;305.75;;;155.55;;
84523;SDS011;74765;44.538;18.668;2024-01-15T12:25:10;293.27;;;155.85;;
84523;SDS011;74765;44.538;18.668;2024-01-15T12:27:36;468.42;;;259.05;;
84523;SDS011;74765;44.538;18.668;2024-01-15T12:30:02;447.30;;;241.68;;
84523;SDS011;74765;44.538;18.668;2024-01-15T12:32:28;468.15;;;264.70;;
84523;SDS011;74765;44.538;18.668;2024-01-15T12:34:55;478.10;;;258.63;;
84523;SDS011;74765;44.538;18.668;2024-01-15T12:37:20;470.52;;;258.42;;
84523;SDS011;74765;44.538;18.668;2024-01-15T12:39:47;411.52;;;225.63;;
84523;SDS011;74765;44.538;18.668;2024-01-15T12:42:16;403.33;;;214.00;;
84523;SDS011;74765;44.538;18.668;2024-01-15T12:44:42;413.60;;;225.30;;
84523;SDS011;74765;44.538;18.668;2024-01-15T12:47:10;439.38;;;249.65;;
84523;SDS011;74765;44.538;18.668;2024-01-15T12:49:36;483.23;;;268.55;;
84523;SDS011;74765;44.538;18.668;2024-01-15T12:52:03;413.90;;;230.57;;
84523;SDS011;74765;44.538;18.668;2024-01-15T12:54:29;379.48;;;207.10;;
84523;SDS011;74765;44.538;18.668;2024-01-15T12:56:54;363.42;;;204.23;;
84523;SDS011;74765;44.538;18.668;2024-01-15T12:59:20;392.67;;;213.77;;
84523;SDS011;74765;44.538;18.668;2024-01-15T13:01:46;407.10;;;226.13;;
84523;SDS011;74765;44.538;18.668;2024-01-15T13:04:20;420.08;;;230.63;;
84523;SDS011;74765;44.538;18.668;2024-01-15T13:06:47;432.98;;;233.80;;
84523;SDS011;74765;44.538;18.668;2024-01-15T13:09:14;411.95;;;217.40;;
84523;SDS011;74765;44.538;18.668;2024-01-15T13:11:40;367.02;;;194.32;;
84523;SDS011;74765;44.538;18.668;2024-01-15T13:14:06;389.52;;;210.95;;
84523;SDS011;74765;44.538;18.668;2024-01-15T13:16:32;383.33;;;208.55;;
84523;SDS011;74765;44.538;18.668;2024-01-15T13:18:57;358.60;;;193.30;;
84523;SDS011;74765;44.538;18.668;2024-01-15T13:21:24;368.27;;;200.30;;
84523;SDS011;74765;44.538;18.668;2024-01-15T13:23:50;364.50;;;196.63;;
84523;SDS011;74765;44.538;18.668;2024-01-15T13:26:16;343.10;;;178.23;;
84523;SDS011;74765;44.538;18.668;2024-01-15T13:28:43;343.42;;;182.73;;
84523;SDS011;74765;44.538;18.668;2024-01-15T13:31:09;393.33;;;217.57;;
84523;SDS011;74765;44.538;18.668;2024-01-15T13:33:35;440.42;;;236.63;;
84523;SDS011;74765;44.538;18.668;2024-01-15T13:36:01;419.95;;;220.68;;
84523;SDS011;74765;44.538;18.668;2024-01-15T13:38:27;444.15;;;229.57;;
84523;SDS011;74765;44.538;18.668;2024-01-15T13:40:56;458.10;;;246.10;;
84523;SDS011;74765;44.538;18.668;2024-01-15T13:43:22;398.67;;;207.63;;
84523;SDS011;74765;44.538;18.668;2024-01-15T13:45:48;352.88;;;182.07;;
84523;SDS011;74765;44.538;18.668;2024-01-15T13:48:14;305.27;;;157.90;;
84523;SDS011;74765;44.538;18.668;2024-01-15T13:50:40;285.17;;;142.20;;
84523;SDS011;74765;44.538;18.668;2024-01-15T13:53:06;295.83;;;146.18;;
84523;SDS011;74765;44.538;18.668;2024-01-15T13:55:33;325.02;;;164.48;;
84523;SDS011;74765;44.538;18.668;2024-01-15T13:57:59;366.92;;;196.35;;
84523;SDS011;74765;44.538;18.668;2024-01-15T14:00:25;307.40;;;156.20;;
84523;SDS011;74765;44.538;18.668;2024-01-15T14:02:50;316.95;;;161.15;;
84523;SDS011;74765;44.538;18.668;2024-01-15T14:05:16;386.42;;;205.95;;
84523;SDS011;74765;44.538;18.668;2024-01-15T14:07:42;372.90;;;199.27;;
84523;SDS011;74765;44.538;18.668;2024-01-15T14:10:11;447.20;;;242.30;;
84523;SDS011;74765;44.538;18.668;2024-01-15T14:12:36;462.27;;;248.20;;
84523;SDS011;74765;44.538;18.668;2024-01-15T14:15:02;461.08;;;250.73;;
84523;SDS011;74765;44.538;18.668;2024-01-15T14:17:29;424.10;;;231.00;;
84523;SDS011;74765;44.538;18.668;2024-01-15T14:19:54;409.73;;;213.98;;
84523;SDS011;74765;44.538;18.668;2024-01-15T14:22:20;372.08;;;205.55;;
84523;SDS011;74765;44.538;18.668;2024-01-15T14:24:47;445.98;;;242.90;;
84523;SDS011;74765;44.538;18.668;2024-01-15T14:27:13;546.75;;;296.63;;
84523;SDS011;74765;44.538;18.668;2024-01-15T14:29:39;540.55;;;295.13;;
84523;SDS011;74765;44.538;18.668;2024-01-15T14:32:05;549.58;;;317.45;;
84523;SDS011;74765;44.538;18.668;2024-01-15T14:34:31;528.90;;;293.67;;
84523;SDS011;74765;44.538;18.668;2024-01-15T14:36:56;572.75;;;318.63;;
84523;SDS011;74765;44.538;18.668;2024-01-15T14:39:22;561.40;;;315.77;;
84523;SDS011;74765;44.538;18.668;2024-01-15T14:41:49;555.05;;;311.30;;
84523;SDS011;74765;44.538;18.668;2024-01-15T14:44:15;554.40;;;312.70;;
84523;SDS011;74765;44.538;18.668;2024-01-15T14:46:41;540.05;;;306.17;;
84523;SDS011;74765;44.538;18.668;2024-01-15T14:49:06;547.35;;;316.48;;
84523;SDS011;74765;44.538;18.668;2024-01-15T14:51:32;541.67;;;306.02;;
84523;SDS011;74765;44.538;18.668;2024-01-15T14:53:58;564.67;;;321.58;;
84523;SDS011;74765;44.538;18.668;2024-01-15T14:56:24;550.33;;;316.08;;
84523;SDS011;74765;44.538;18.668;2024-01-15T14:58:50;562.33;;;323.60;;
84523;SDS011;74765;44.538;18.668;2024-01-15T15:01:15;578.85;;;330.95;;
84523;SDS011;74765;44.538;18.668;2024-01-15T15:03:41;541.70;;;310.92;;
84523;SDS011;74765;44.538;18.668;2024-01-15T15:06:09;546.50;;;309.85;;
84523;SDS011;74765;44.538;18.668;2024-01-15T15:08:35;537.30;;;307.13;;
84523;SDS011;74765;44.538;18.668;2024-01-15T15:11:02;581.70;;;327.88;;
84523;SDS011;74765;44.538;18.668;2024-01-15T15:13:29;655.78;;;371.10;;
84523;SDS011;74765;44.538;18.668;2024-01-15T15:15:55;668.30;;;390.77;;
84523;SDS011;74765;44.538;18.668;2024-01-15T15:18:21;632.28;;;357.55;;
84523;SDS011;74765;44.538;18.668;2024-01-15T15:20:47;641.58;;;366.90;;
84523;SDS011;74765;44.538;18.668;2024-01-15T15:23:14;538.17;;;295.75;;
84523;SDS011;74765;44.538;18.668;2024-01-15T15:25:40;533.35;;;298.42;;
84523;SDS011;74765;44.538;18.668;2024-01-15T15:28:08;641.00;;;365.90;;
84523;SDS011;74765;44.538;18.668;2024-01-15T15:30:36;634.72;;;360.90;;
84523;SDS011;74765;44.538;18.668;2024-01-15T15:33:03;650.53;;;370.30;;
84523;SDS011;74765;44.538;18.668;2024-01-15T15:35:30;656.28;;;366.17;;
84523;SDS011;74765;44.538;18.668;2024-01-15T15:37:56;629.42;;;354.02;;
84523;SDS011;74765;44.538;18.668;2024-01-15T15:40:22;622.67;;;348.00;;
84523;SDS011;74765;44.538;18.668;2024-01-15T15:42:50;580.10;;;326.33;;
84523;SDS011;74765;44.538;18.668;2024-01-15T15:45:16;566.63;;;318.15;;
84523;SDS011;74765;44.538;18.668;2024-01-15T15:47:42;618.95;;;348.85;;
84523;SDS011;74765;44.538;18.668;2024-01-15T15:50:08;628.90;;;363.05;;
84523;SDS011;74765;44.538;18.668;2024-01-15T15:52:34;638.90;;;361.50;;
84523;SDS011;74765;44.538;18.668;2024-01-15T15:55:00;604.25;;;346.42;;
84523;SDS011;74765;44.538;18.668;2024-01-15T15:57:26;609.05;;;344.25;;
84523;SDS011;74765;44.538;18.668;2024-01-15T15:59:52;638.20;;;356.17;;
84523;SDS011;74765;44.538;18.668;2024-01-15T16:02:21;658.75;;;380.15;;
84523;SDS011;74765;44.538;18.668;2024-01-15T16:04:47;614.50;;;344.98;;
84523;SDS011;74765;44.538;18.668;2024-01-15T16:07:12;588.28;;;332.15;;
84523;SDS011;74765;44.538;18.668;2024-01-15T16:09:39;643.10;;;362.33;;
84523;SDS011;74765;44.538;18.668;2024-01-15T16:12:06;642.63;;;354.30;;
84523;SDS011;74765;44.538;18.668;2024-01-15T16:14:33;608.50;;;332.80;;
84523;SDS011;74765;44.538;18.668;2024-01-15T16:16:59;603.50;;;323.15;;
84523;SDS011;74765;44.538;18.668;2024-01-15T16:19:25;602.83;;;326.90;;
84523;SDS011;74765;44.538;18.668;2024-01-15T16:21:51;615.13;;;326.35;;
84523;SDS011;74765;44.538;18.668;2024-01-15T16:24:17;619.33;;;321.08;;
84523;SDS011;74765;44.538;18.668;2024-01-15T16:26:45;579.58;;;285.55;;
84523;SDS011;74765;44.538;18.668;2024-01-15T16:29:10;567.83;;;280.73;;
84523;SDS011;74765;44.538;18.668;2024-01-15T16:31:37;556.72;;;282.05;;
84523;SDS011;74765;44.538;18.668;2024-01-15T16:34:03;553.42;;;270.80;;
84523;SDS011;74765;44.538;18.668;2024-01-15T16:36:29;566.38;;;276.80;;
84523;SDS011;74765;44.538;18.668;2024-01-15T16:38:55;587.20;;;289.65;;
84523;SDS011;74765;44.538;18.668;2024-01-15T16:41:21;598.70;;;289.63;;
84523;SDS011;74765;44.538;18.668;2024-01-15T16:43:47;565.17;;;283.85;;
84523;SDS011;74765;44.538;18.668;2024-01-15T16:46:13;553.97;;;269.70;;
84523;SDS011;74765;44.538;18.668;2024-01-15T16:48:39;559.47;;;273.08;;
84523;SDS011;74765;44.538;18.668;2024-01-15T16:51:05;572.45;;;280.23;;
84523;SDS011;74765;44.538;18.668;2024-01-15T16:53:31;559.22;;;276.42;;
84523;SDS011;74765;44.538;18.668;2024-01-15T16:55:57;542.30;;;265.90;;
84523;SDS011;74765;44.538;18.668;2024-01-15T16:58:22;516.92;;;252.50;;
84523;SDS011;74765;44.538;18.668;2024-01-15T17:00:49;541.13;;;266.38;;
84523;SDS011;74765;44.538;18.668;2024-01-15T17:03:15;545.95;;;269.05;;
84523;SDS011;74765;44.538;18.668;2024-01-15T17:05:41;571.03;;;282.48;;
84523;SDS011;74765;44.538;18.668;2024-01-15T17:08:06;569.47;;;296.55;;
84523;SDS011;74765;44.538;18.668;2024-01-15T17:10:32;581.88;;;299.92;;
84523;SDS011;74765;44.538;18.668;2024-01-15T17:15:29;568.35;;;274.08;;
84523;SDS011;74765;44.538;18.668;2024-01-15T17:17:56;546.78;;;268.23;;
84523;SDS011;74765;44.538;18.668;2024-01-15T17:20:21;625.13;;;322.25;;
84523;SDS011;74765;44.538;18.668;2024-01-15T17:22:47;610.65;;;315.42;;
84523;SDS011;74765;44.538;18.668;2024-01-15T17:25:13;563.13;;;288.83;;
84523;SDS011;74765;44.538;18.668;2024-01-15T17:27:39;576.97;;;293.25;;
84523;SDS011;74765;44.538;18.668;2024-01-15T17:30:05;596.17;;;309.98;;
84523;SDS011;74765;44.538;18.668;2024-01-15T17:32:33;624.72;;;324.17;;
84523;SDS011;74765;44.538;18.668;2024-01-15T17:34:59;611.85;;;317.52;;
84523;SDS011;74765;44.538;18.668;2024-01-15T17:37:25;643.30;;;333.10;;
84523;SDS011;74765;44.538;18.668;2024-01-15T17:39:51;612.50;;;315.52;;
84523;SDS011;74765;44.538;18.668;2024-01-15T17:42:17;613.17;;;309.67;;
84523;SDS011;74765;44.538;18.668;2024-01-15T17:44:43;549.60;;;277.05;;
84523;SDS011;74765;44.538;18.668;2024-01-15T17:47:10;546.95;;;280.55;;
84523;SDS011;74765;44.538;18.668;2024-01-15T17:49:36;606.72;;;315.02;;
84523;SDS011;74765;44.538;18.668;2024-01-15T17:52:03;656.28;;;342.67;;
84523;SDS011;74765;44.538;18.668;2024-01-15T17:54:29;699.05;;;367.00;;
84523;SDS011;74765;44.538;18.668;2024-01-15T17:56:56;695.92;;;367.65;;
84523;SDS011;74765;44.538;18.668;2024-01-15T17:59:22;630.78;;;333.52;;
84523;SDS011;74765;44.538;18.668;2024-01-15T18:01:48;668.63;;;356.60;;
84523;SDS011;74765;44.538;18.668;2024-01-15T18:04:16;712.03;;;370.13;;
84523;SDS011;74765;44.538;18.668;2024-01-15T18:06:45;503.90;;;255.35;;
84523;SDS011;74765;44.538;18.668;2024-01-15T18:09:12;562.97;;;287.35;;
84523;SDS011;74765;44.538;18.668;2024-01-15T18:11:42;491.05;;;241.82;;
84523;SDS011;74765;44.538;18.668;2024-01-15T18:14:08;537.88;;;274.90;;
84523;SDS011;74765;44.538;18.668;2024-01-15T18:16:34;523.80;;;268.02;;
84523;SDS011;74765;44.538;18.668;2024-01-15T18:19:00;465.33;;;230.48;;
84523;SDS011;74765;44.538;18.668;2024-01-15T18:21:25;460.23;;;226.35;;
84523;SDS011;74765;44.538;18.668;2024-01-15T18:23:52;500.38;;;236.27;;
84523;SDS011;74765;44.538;18.668;2024-01-15T18:26:17;526.75;;;265.17;;
84523;SDS011;74765;44.538;18.668;2024-01-15T18:28:43;544.58;;;275.65;;
84523;SDS011;74765;44.538;18.668;2024-01-15T18:31:11;557.95;;;283.58;;
84523;SDS011;74765;44.538;18.668;2024-01-15T18:33:37;438.38;;;204.68;;
84523;SDS011;74765;44.538;18.668;2024-01-15T18:36:05;412.80;;;191.82;;
84523;SDS011;74765;44.538;18.668;2024-01-15T18:38:32;549.93;;;280.53;;
84523;SDS011;74765;44.538;18.668;2024-01-15T18:40:59;556.25;;;283.95;;
84523;SDS011;74765;44.538;18.668;2024-01-15T18:43:25;471.52;;;231.73;;
84523;SDS011;74765;44.538;18.668;2024-01-15T18:45:52;430.65;;;210.23;;
84523;SDS011;74765;44.538;18.668;2024-01-15T18:48:18;433.00;;;196.35;;
84523;SDS011;74765;44.538;18.668;2024-01-15T18:50:44;533.70;;;264.65;;
84523;SDS011;74765;44.538;18.668;2024-01-15T18:53:09;469.77;;;223.70;;
84523;SDS011;74765;44.538;18.668;2024-01-15T18:55:35;440.75;;;209.35;;
84523;SDS011;74765;44.538;18.668;2024-01-15T18:58:01;412.08;;;188.45;;
84523;SDS011;74765;44.538;18.668;2024-01-15T19:00:27;353.25;;;158.02;;
84523;SDS011;74765;44.538;18.668;2024-01-15T19:02:52;264.50;;;120.28;;
84523;SDS011;74765;44.538;18.668;2024-01-15T19:05:25;312.17;;;135.13;;
84523;SDS011;74765;44.538;18.668;2024-01-15T19:07:51;228.93;;;107.03;;
84523;SDS011;74765;44.538;18.668;2024-01-15T19:10:17;219.98;;;98.93;;
84523;SDS011;74765;44.538;18.668;2024-01-15T19:12:43;195.85;;;90.25;;
84523;SDS011;74765;44.538;18.668;2024-01-15T19:15:09;218.82;;;96.97;;
84523;SDS011;74765;44.538;18.668;2024-01-15T19:17:35;152.65;;;77.70;;
84523;SDS011;74765;44.538;18.668;2024-01-15T19:20:00;144.20;;;61.97;;
84523;SDS011;74765;44.538;18.668;2024-01-15T19:22:26;151.70;;;66.97;;
84523;SDS011;74765;44.538;18.668;2024-01-15T19:24:52;161.75;;;71.15;;
84523;SDS011;74765;44.538;18.668;2024-01-15T19:27:18;133.60;;;53.35;;
84523;SDS011;74765;44.538;18.668;2024-01-15T19:29:44;102.95;;;47.00;;
84523;SDS011;74765;44.538;18.668;2024-01-15T19:32:09;100.35;;;45.65;;
84523;SDS011;74765;44.538;18.668;2024-01-15T19:34:39;120.47;;;54.20;;
84523;SDS011;74765;44.538;18.668;2024-01-15T19:37:06;114.35;;;53.08;;
84523;SDS011;74765;44.538;18.668;2024-01-15T19:39:32;81.05;;;41.63;;
84523;SDS011;74765;44.538;18.668;2024-01-15T19:41:58;58.78;;;30.67;;
84523;SDS011;74765;44.538;18.668;2024-01-15T19:44:26;45.92;;;24.05;;
84523;SDS011;74765;44.538;18.668;2024-01-15T19:46:52;41.53;;;18.33;;
84523;SDS011;74765;44.538;18.668;2024-01-15T19:49:18;34.95;;;17.33;;
84523;SDS011;74765;44.538;18.668;2024-01-15T19:51:43;33.83;;;17.10;;
84523;SDS011;74765;44.538;18.668;2024-01-15T19:54:09;31.90;;;16.98;;
84523;SDS011;74765;44.538;18.668;2024-01-15T19:56:35;42.03;;;22.25;;
84523;SDS011;74765;44.538;18.668;2024-01-15T19:59:03;41.90;;;21.80;;
84523;SDS011;74765;44.538;18.668;2024-01-15T20:01:31;36.85;;;19.20;;
84523;SDS011;74765;44.538;18.668;2024-01-15T20:03:57;56.35;;;22.50;;
84523;SDS011;74765;44.538;18.668;2024-01-15T20:06:23;39.05;;;18.95;;
84523;SDS011;74765;44.538;18.668;2024-01-15T20:08:49;38.20;;;18.83;;
84523;SDS011;74765;44.538;18.668;2024-01-15T20:11:17;30.02;;;17.25;;
84523;SDS011;74765;44.538;18.668;2024-01-15T20:13:43;15.82;;;8.88;;
84523;SDS011;74765;44.538;18.668;2024-01-15T20:16:10;16.30;;;8.32;;
84523;SDS011;74765;44.538;18.668;2024-01-15T20:18:37;11.73;;;7.20;;
84523;SDS011;74765;44.538;18.668;2024-01-15T20:21:03;28.65;;;12.65;;
84523;SDS011;74765;44.538;18.668;2024-01-15T20:23:33;14.63;;;9.15;;
84523;SDS011;74765;44.538;18.668;2024-01-15T20:26:00;14.63;;;7.93;;